Latest Weather Observations for Viewbank

IDV60901

Issued at 8:51 am EST Tuesday 17 September 2019 (issued every 10 minutes, with the page automatically refreshed every 10 minutes)

About weather observations | Map of Melbourne area stations | Latest observations for Melbourne area | Other Formats
Station Details ID: 086068 Name: VIEWBANK Lat: -37.74 Lon: 145.10 Height: 66.1 m
Data from the previous 72 hours. | See also: Recent months at Viewbank
Date/Time
EST
Temp
°C
App
Temp
°C
Dew
Point
°C
Rel
Hum
%
Delta-T
°C
Wind Press
QNH
hPa
Press
MSL
hPa
Rain since
9am
mm
Dir  Spd
km/h
Gust
km/h
Spd
kts
Gust
kts
17/08:30am 7.2 5.9 4.2 81 1.3 CALM 0 2 0 1 1028.2 1028.2 0.2
17/08:00am 4.9 3.7 4.8 99 0.0 CALM 0 7 0 4 1027.7 1027.8 0.2
17/07:30am 2.8 1.2 2.7 99 0.0 CALM 0 6 0 3 1027.5 1027.6 0.2
17/07:00am 1.9 0.2 1.8 99 0.0 CALM 0 6 0 3 1027.3 1027.4 0.2
17/06:30am 2.0 0.3 1.9 99 0.0 CALM 0 0 0 0 1027.2 1027.3 0.2
17/06:00am 1.8 -0.7 1.7 99 0.0 NNW 4 9 2 5 1027.1 1027.2 0.2
17/05:30am 2.6 -0.1 2.5 99 0.0 SW 6 7 3 4 1026.7 1026.8 0.2
17/05:00am 3.3 1.8 3.2 99 0.0 CALM 0 0 0 0 1026.6 1026.7 0.2
17/04:30am 3.3 1.8 3.2 99 0.0 CALM 0 0 0 0 1026.2 1026.3 0.2
17/04:00am 3.2 0.6 3.1 99 0.0 WSW 6 7 3 4 1026.1 1026.2 0.2
17/03:30am 3.9 1.3 3.0 94 0.4 SSE 6 7 3 4 1026.0 1026.1 0.2
17/03:00am 4.0 2.2 3.4 96 0.2 S 2 6 1 3 1026.1 1026.2 0.2
17/02:30am 3.8 1.2 3.2 96 0.2 SW 6 7 3 4 1026.0 1026.1 0.2
17/02:00am 4.1 2.2 2.9 92 0.5 SE 2 6 1 3 1025.9 1026.0 0.2
17/01:30am 4.6 2.6 2.5 86 0.8 SE 2 7 1 4 1026.1 1026.2 0.2
17/01:00am 5.0 2.7 2.5 84 1.0 SSE 4 7 2 4 1026.3 1026.4 0.2
17/12:30am 5.0 3.0 2.5 84 1.0 SSE 2 7 1 4 1026.5 1026.6 0.2
17/12:00am 5.3 3.2 2.0 79 1.3 SE 2 9 1 5 1026.3 1026.4 0.2
 
Date/Time
EST
Temp
°C
App
Temp
°C
Dew
Point
°C
Rel
Hum
%
Delta-T
°C
Wind Press
QNH
hPa
Press
MSL
hPa
Rain since
9am
mm
Dir  Spd
km/h
Gust
km/h
Spd
kts
Gust
kts
16/11:30pm 6.2 2.8 1.9 74 1.7 SSW 9 15 5 8 1026.3 1026.4 0.2
16/11:00pm 6.1 3.1 2.2 76 1.6 S 7 11 4 6 1026.2 1026.3 0.2
16/10:30pm 6.0 2.7 2.5 78 1.4 SSW 9 9 5 5 1026.2 1026.3 0.2
16/10:00pm 6.5 3.2 2.2 74 1.7 SSW 9 13 5 7 1026.1 1026.2 0.2
16/09:30pm 6.8 3.5 2.3 73 1.9 S 9 13 5 7 1026.0 1026.1 0.2
16/09:00pm 6.7 3.4 2.2 73 1.8 SSW 9 11 5 6 1025.8 1025.9 0.2
16/08:30pm 7.0 3.6 2.1 71 2.0 SSW 9 15 5 8 1025.6 1025.7 0.2
16/08:00pm 7.3 3.9 1.6 67 2.3 SSW 9 13 5 7 1025.5 1025.6 0.2
16/07:30pm 8.0 2.9 1.0 61 2.8 SSW 17 26 9 14 1025.1 1025.2 0.2
16/07:00pm 8.7 4.4 0.9 58 3.1 S 13 24 7 13 1024.7 1024.8 0.2
16/06:30pm 8.7 3.6 0.7 57 3.2 SSW 17 28 9 15 1024.1 1024.2 0.2
16/06:00pm 9.4 3.5 -0.5 50 3.9 SSW 20 33 11 18 1023.9 1024.0 0.2
16/05:30pm 9.9 4.1 -0.3 49 4.1 S 20 35 11 19 1023.5 1023.5 0.2
16/05:00pm 10.3 4.5 0.1 49 4.1 SSW 20 35 11 19 1022.9 1022.9 0.2
16/04:30pm 10.7 4.1 -0.4 46 4.5 SSW 24 39 13 21 1022.4 1022.4 0.2
16/04:00pm 10.8 5.7 3.1 59 3.3 SSW 19 39 10 21 1022.3 1022.3 0.2
16/03:30pm 10.7 4.6 0.4 49 4.2 SSW 22 37 12 20 1022.0 1022.0 0.2
16/03:00pm 11.0 4.9 2.6 56 3.6 SSW 24 37 13 20 1022.1 1022.1 0.2
16/02:30pm 11.7 6.2 1.6 50 4.3 SW 20 33 11 18 1021.7 1021.7 0.2
16/02:00pm 11.5 5.2 1.7 51 4.2 SSW 24 37 13 20 1021.4 1021.4 0.2
16/01:30pm 11.7 5.4 1.6 50 4.3 SSW 24 39 13 21 1021.3 1021.3 0.2
16/01:00pm 11.5 4.7 0.9 48 4.4 SSW 26 43 14 23 1021.3 1021.3 0.2
16/12:30pm 11.4 5.8 3.4 58 3.5 SSW 22 37 12 20 1020.8 1020.8 0.2
16/12:00pm 11.9 5.9 3.4 56 3.8 SSW 24 39 13 21 1020.7 1020.7 0.2
16/11:30am 12.1 6.7 2.6 52 4.1 SSW 20 37 11 20 1020.9 1020.9 0.2
16/11:08am 11.8 5.0 3.3 56 3.8 SSW 28 46 15 25 1020.5 1020.5 0.2
16/11:00am 11.2 4.9 4.0 61 3.2 SSW 26 39 14 21 1020.6 1020.6 0.2
16/10:30am 11.4 6.4 4.4 62 3.2 SSW 20 33 11 18 1020.4 1020.4 0.2
16/10:00am 10.3 6.2 6.3 76 1.9 SW 17 30 9 16 1020.3 1020.3 0.2
16/09:30am 9.7 7.6 9.6 99 0.1 SSW 11 17 6 9 1020.2 1020.2 0.2
16/09:00am 10.2 8.1 9.9 98 0.2 SW 11 17 6 9 1020.2 1020.2 18.4
16/08:30am 9.8 8.5 9.8 100 0.0 WSW 7 11 4 6 1020.2 1020.2 18.4
16/08:00am 8.9 7.3 8.9 100 0.0 WSW 7 11 4 6 1019.8 1019.8 18.4
16/07:30am 9.0 7.5 9.0 100 0.0 WSW 7 13 4 7 1019.5 1019.5 18.4
16/07:00am 8.7 7.3 8.7 100 0.0 WSW 6 7 3 4 1019.3 1019.3 18.2
16/06:30am 8.9 7.5 8.9 100 0.0 W 6 11 3 6 1018.8 1018.8 18.2
16/06:00am 8.9 8.7 8.9 100 0.0 CALM 0 4 0 2 1018.7 1018.7 18.2
16/05:30am 9.1 7.8 9.1 100 0.0 NW 6 7 3 4 1018.3 1018.3 18.2
16/05:00am 9.1 7.8 9.1 100 0.0 WNW 6 7 3 4 1018.0 1018.0 18.2
16/04:30am 9.1 8.5 9.1 100 0.0 WNW 2 7 1 4 1017.8 1017.8 18.2
16/04:00am 9.1 7.8 9.1 100 0.0 WNW 6 13 3 7 1017.8 1017.8 18.2
16/03:30am 9.2 7.3 9.2 100 0.0 WNW 9 15 5 8 1017.7 1017.7 18.0
16/03:00am 9.4 7.6 9.4 100 0.0 W 9 15 5 8 1017.3 1017.3 15.4
16/02:30am 9.5 7.3 9.5 100 0.0 W 11 22 6 12 1017.0 1017.0 13.8
16/02:00am 9.6 6.7 9.6 100 0.0 W 15 24 8 13 1017.0 1017.0 12.6
16/01:30am 10.0 6.3 10.0 100 0.0 W 20 41 11 22 1017.4 1017.4 9.8
16/01:00am 10.6 7.6 10.6 100 0.0 SW 17 28 9 15 1016.5 1016.5 8.0
16/12:42am 11.5 7.0 11.5 100 0.0 WSW 26 46 14 25 1015.6 1015.6 7.4
16/12:40am 12.0 8.4 12.0 100 0.0 WSW 22 44 12 24 1015.7 1015.7 7.4
16/12:30am 13.3 12.6 13.3 100 0.0 W 9 15 5 8 1015.3 1015.3 6.0
16/12:00am 13.1 12.7 13.1 100 0.0 NNW 7 13 4 7 1015.1 1015.1 6.0
 
Date/Time
EST
Temp
°C
App
Temp
°C
Dew
Point
°C
Rel
Hum
%
Delta-T
°C
Wind Press
QNH
hPa
Press
MSL
hPa
Rain since
9am
mm
Dir  Spd
km/h
Gust
km/h
Spd
kts
Gust
kts
15/11:30pm 12.9 12.7 12.9 100 0.0 NNW 6 9 3 5 1015.1 1015.1 5.8
15/11:00pm 12.9 13.1 12.9 100 0.0 N 4 9 2 5 1015.2 1015.2 5.4
15/10:30pm 12.9 13.1 12.9 100 0.0 WNW 4 9 2 5 1015.5 1015.5 5.0
15/10:00pm 12.8 12.5 12.8 100 0.0 SSW 6 9 3 5 1015.9 1015.9 4.6
15/09:30pm 13.0 12.2 13.0 100 0.0 NE 9 17 5 9 1014.9 1014.9 4.4
15/09:00pm 13.1 12.7 13.1 100 0.0 NNE 7 17 4 9 1015.2 1015.2 4.4
15/08:30pm 13.2 13.1 13.2 100 0.0 NE 6 11 3 6 1015.9 1015.9 4.4
15/08:00pm 13.3 13.0 13.3 100 0.0 NNE 7 9 4 5 1016.6 1016.6 4.0
15/07:30pm 13.5 12.1 13.5 100 0.0 SW 13 20 7 11 1018.2 1018.2 2.8
15/07:00pm 14.6 14.4 13.1 91 0.8 SSW 6 9 3 5 1016.9 1016.9 0.8
15/06:30pm 14.9 14.4 12.8 87 1.2 NNE 7 13 4 7 1015.9 1015.9 0.6
15/06:00pm 15.3 13.9 12.1 81 1.7 N 11 15 6 8 1015.9 1015.9 0.6
15/05:30pm 15.3 13.5 12.1 81 1.7 N 13 22 7 12 1015.6 1015.6 0.6
15/05:00pm 16.8 13.6 10.0 64 3.6 NNW 17 24 9 13 1016.1 1016.1 0.2
15/04:30pm 16.2 13.5 10.5 69 3.0 N 15 22 8 12 1016.1 1016.1 0.2
15/04:00pm 16.9 12.9 9.1 60 4.0 NNW 20 37 11 20 1016.1 1016.1 0.0
15/03:30pm 17.2 13.2 9.1 59 4.2 N 20 35 11 19 1014.8 1014.8 0.0
15/03:00pm 18.2 14.2 9.0 55 4.8 N 20 37 11 20 1015.1 1015.1 0.0
15/02:30pm 18.1 13.4 7.8 51 5.3 N 22 37 12 20 1015.5 1015.5 0.0
15/02:00pm 18.8 13.2 7.3 47 5.8 NNW 26 37 14 20 1015.8 1015.8 0.0
15/01:30pm 18.2 15.4 7.0 48 5.6 NNW 11 19 6 10 1015.9 1015.9 0.0
15/01:00pm 17.5 15.5 7.3 51 5.1 WNW 7 13 4 7 1015.6 1015.6 0.0
15/12:30pm 16.5 14.1 7.2 54 4.6 ENE 9 17 5 9 1015.6 1015.6 0.0
15/12:00pm 16.7 13.7 6.2 50 5.1 NE 11 20 6 11 1016.0 1016.0 0.0
15/11:30am 16.5 13.1 5.8 49 5.2 NNE 13 24 7 13 1016.5 1016.5 0.0
15/11:00am 16.1 10.9 5.7 50 5.0 NNE 22 44 12 24 1017.0 1017.0 0.0
15/10:30am 15.8 12.5 6.5 54 4.5 NNE 13 26 7 14 1017.4 1017.4 0.0
15/10:00am 15.7 11.2 6.2 53 4.6 NNE 19 35 10 19 1017.8 1017.8 0.0
15/09:30am 15.6 12.0 6.9 56 4.3 NNE 15 35 8 19 1018.1 1018.1 0.0
15/09:00am 14.4 10.5 7.0 61 3.6 NNE 17 35 9 19 1018.8 1018.8 2.0
15/08:30am 13.5 10.2 8.1 70 2.7 NNE 15 32 8 17 1018.9 1018.9 -
15/08:00am 13.0 10.2 8.7 75 2.2 NNE 13 30 7 16 1019.2 1019.2 -
15/07:30am 12.6 12.5 12.1 97 0.3 ENE 4 13 2 7 1019.3 1019.3 -
15/07:00am 12.3 12.2 12.1 99 0.1 ENE 4 7 2 4 1018.7 1018.7 -
15/06:30am 12.3 11.0 11.4 94 0.5 E 9 15 5 8 1018.1 1018.1 -
15/06:00am 12.4 10.1 10.3 87 1.1 NNE 13 28 7 15 1017.8 1017.8 -
15/05:30am 12.8 9.1 9.4 80 1.7 N 19 32 10 17 1018.5 1018.5 -
15/05:00am 13.0 10.5 9.8 81 1.6 N 13 26 7 14 1019.4 1019.4 -
15/04:30am 13.1 11.8 10.1 82 1.6 NE 7 15 4 8 1019.2 1019.2 -
15/04:00am 12.4 11.7 10.1 86 1.2 NE 4 7 2 4 1019.4 1019.4 -
15/03:30am 13.5 11.9 8.1 70 2.7 NE 6 7 3 4 1018.9 1018.9 -
15/03:00am 13.4 11.8 8.0 70 2.7 NE 6 9 3 5 1019.1 1019.1 0.0
15/02:30am 13.4 10.9 8.3 71 2.5 NE 11 15 6 8 1019.3 1019.3 -
15/02:00am 13.4 11.7 8.3 71 2.5 NE 7 11 4 6 1020.0 1020.0 -
15/01:30am 13.7 11.9 7.9 68 2.9 NE 7 9 4 5 1020.3 1020.3 -
15/01:00am 14.0 12.1 7.5 65 3.2 NE 7 11 4 6 1020.5 1020.5 -
15/12:30am 14.0 12.4 7.8 66 3.1 ENE 6 11 3 6 1021.1 1021.1 -
15/12:00am 14.8 12.8 6.1 56 4.2 ENE 6 9 3 5 1021.3 1021.3 -
 
Date/Time
EST
Temp
°C
App
Temp
°C
Dew
Point
°C
Rel
Hum
%
Delta-T
°C
Wind Press
QNH
hPa
Press
MSL
hPa
Rain since
9am
mm
Dir  Spd
km/h
Gust
km/h
Spd
kts
Gust
kts
14/11:30pm 15.7 14.1 4.7 48 5.2 ENE 2 7 1 4 1021.5 1021.5 -
14/11:00pm 16.3 14.6 4.0 44 5.7 N 2 7 1 4 1021.6 1021.6 -
14/10:30pm 16.4 13.9 4.8 46 5.5 NNE 7 19 4 10 1021.2 1021.2 -
14/10:00pm 16.8 13.5 4.8 45 5.7 NNE 11 20 6 11 1021.4 1021.4 -
14/09:30pm 15.6 13.6 6.1 53 4.6 NNE 6 15 3 8 1021.5 1021.5 -
14/09:00pm 15.1 13.1 6.4 56 4.2 ENE 6 7 3 4 1021.9 1021.9 0.0
14/08:30pm 15.0 13.8 6.6 57 4.1 NE 2 7 1 4 1022.0 1022.0 -
14/08:00pm 15.9 13.4 6.6 54 4.5 NNE 9 15 5 8 1021.7 1021.7 -
14/07:30pm 16.1 13.0 7.1 55 4.5 NNE 13 24 7 13 1021.8 1021.8 -
14/07:00pm 16.5 14.3 7.7 56 4.4 NE 9 17 5 9 1021.7 1021.7 -
14/06:30pm 17.1 14.9 7.7 54 4.8 E 9 20 5 11 1021.8 1021.8 -
14/06:00pm 17.7 16.2 8.6 55 4.7 E 6 13 3 7 1021.8 1021.8 -
14/05:30pm 18.6 17.0 8.6 52 5.2 ENE 7 13 4 7 1022.1 1022.1 -
14/05:00pm 18.7 16.7 7.2 47 5.8 ENE 7 15 4 8 1022.0 1022.0 -
14/04:30pm 19.3 16.9 5.4 40 6.8 N 7 13 4 7 1022.4 1022.4 -
14/04:00pm 19.4 17.6 5.5 40 6.8 ESE 4 9 2 5 1022.4 1022.4 -
14/03:30pm 19.5 18.3 6.6 43 6.5 SE 2 9 1 5 1022.7 1022.7 -
14/03:00pm 18.6 16.3 5.5 42 6.4 NE 7 11 4 6 1023.0 1023.0 -
14/02:30pm 18.3 16.0 5.5 43 6.2 NE 7 15 4 8 1023.4 1023.4 -
14/02:00pm 18.0 15.1 4.9 42 6.3 NW 9 13 5 7 1023.5 1023.5 -
14/01:30pm 17.7 14.5 5.3 44 6.0 NNW 11 17 6 9 1023.8 1023.9 -
14/01:00pm 17.4 15.0 5.4 45 5.8 NE 7 13 4 7 1024.2 1024.3 -
14/12:30pm 16.7 14.1 5.9 49 5.3 NNW 9 17 5 9 1024.9 1025.0 -
14/12:00pm 15.3 13.2 6.8 57 4.1 NE 7 11 4 6 1025.3 1025.4 -
14/11:30am 14.5 12.9 6.3 58 4.0 NNE 4 11 2 6 1025.6 1025.7 -
14/11:00am 14.4 12.5 6.7 60 3.7 E 6 7 3 4 1025.7 1025.8 0.0
14/10:30am 13.5 11.3 7.7 68 2.9 ENE 9 15 5 8 1026.1 1026.2 0.0
14/10:00am 13.0 11.9 8.5 74 2.2 SE 4 11 2 6 1026.8 1026.9 0.0
14/09:30am 11.7 9.9 7.8 77 1.9 SSW 7 13 4 7 1027.0 1027.1 0.0
14/09:00am 10.9 9.4 9.2 89 0.8 SSW 7 11 4 6 1027.1 1027.2 0.0

Latest Capital City Observations: Canberra | Sydney | Melbourne | Brisbane | Adelaide | Perth | Hobart | Darwin

Other formats

Comma delimited format used in spreadsheet applications
http://www.bom.gov.au/fwo/IDV60901/IDV60901.95874.axf

JavaScript Object Notation format (JSON) in row-major order
http://www.bom.gov.au/fwo/IDV60901/IDV60901.95874.json

Data quality

Most of these data are generated automatically and are frequently updated. Quality checks on data are not normally performed. It is possible for incorrect values to appear. Refer to information at About Latest Weather Observations and please check the disclaimer before using these data.